createdAt,value
2023-04-02T00:01:15.047Z,1.67
2023-04-02T00:04:09.844Z,1.77
2023-04-02T00:06:44.700Z,2.20
2023-04-02T00:09:31.013Z,2.07
2023-04-02T00:12:00.223Z,2.00
2023-04-02T00:14:30.260Z,1.63
2023-04-02T00:16:58.790Z,1.80
2023-04-02T00:19:29.501Z,1.30
2023-04-02T00:21:58.153Z,1.83
2023-04-02T00:24:25.658Z,2.10
2023-04-02T00:26:53.711Z,1.90
2023-04-02T00:29:21.735Z,3.10
2023-04-02T00:31:53.026Z,2.67
2023-04-02T00:34:22.753Z,3.17
2023-04-02T00:36:50.942Z,2.87
2023-04-02T00:39:20.237Z,3.10
2023-04-02T00:41:47.917Z,3.00
2023-04-02T00:44:22.009Z,3.13
2023-04-02T00:46:49.993Z,3.00
2023-04-02T00:49:22.170Z,2.83
2023-04-02T00:51:53.188Z,3.00
2023-04-02T00:54:22.618Z,2.77
2023-04-02T00:56:52.704Z,2.73
2023-04-02T00:59:21.954Z,2.90
2023-04-02T01:01:54.116Z,2.33
2023-04-02T01:04:42.696Z,2.43
2023-04-02T01:07:12.170Z,2.00
2023-04-02T01:09:54.705Z,2.03
2023-04-02T01:12:28.419Z,1.40
2023-04-02T01:14:59.186Z,1.87
2023-04-02T01:17:34.860Z,2.10
2023-04-02T01:20:22.493Z,2.40
2023-04-02T01:22:53.469Z,1.97
2023-04-02T01:25:24.884Z,1.60
2023-04-02T01:27:53.937Z,2.37
2023-04-02T01:30:22.845Z,1.70
2023-04-02T01:32:50.698Z,1.87
2023-04-02T01:35:18.224Z,1.90
2023-04-02T01:37:49.296Z,1.93
2023-04-02T01:40:31.966Z,2.20
2023-04-02T01:43:03.619Z,2.03
2023-04-02T01:45:32.452Z,2.53
2023-04-02T01:48:00.248Z,1.97
2023-04-02T01:50:31.508Z,2.33
2023-04-02T01:53:01.049Z,2.40
2023-04-02T01:55:32.166Z,2.73
2023-04-02T01:58:01.198Z,2.47
2023-04-02T02:00:30.104Z,2.10
2023-04-02T02:03:00.721Z,2.27
2023-04-02T02:05:28.519Z,2.80
2023-04-02T02:07:57.786Z,2.00
2023-04-02T02:10:27.436Z,2.30
2023-04-02T02:12:55.704Z,2.10
2023-04-02T02:15:24.379Z,1.40
2023-04-02T02:17:54.878Z,1.60
2023-04-02T02:20:24.179Z,1.67
2023-04-02T02:22:52.197Z,2.00
2023-04-02T02:25:20.770Z,2.50
2023-04-02T02:27:54.477Z,1.90
2023-04-02T02:30:24.329Z,2.10
2023-04-02T02:32:54.822Z,1.57
2023-04-02T02:35:24.959Z,1.67
2023-04-02T02:37:56.150Z,1.50
2023-04-02T02:40:26.612Z,1.23
2023-04-02T02:42:57.661Z,1.57
2023-04-02T02:45:27.349Z,1.63
2023-04-02T02:47:55.703Z,1.80
2023-04-02T02:50:26.508Z,1.90
2023-04-02T02:52:56.083Z,2.53
2023-04-02T02:55:27.461Z,2.63
2023-04-02T02:58:04.430Z,2.33
2023-04-02T03:00:38.216Z,2.03
2023-04-02T03:03:07.211Z,2.33
2023-04-02T03:05:36.547Z,2.73
2023-04-02T03:08:13.530Z,3.20
2023-04-02T03:10:44.865Z,2.50
2023-04-02T03:13:19.832Z,1.63
2023-04-02T03:15:50.894Z,2.77
2023-04-02T03:18:25.932Z,2.13
2023-04-02T03:20:57.458Z,2.30
2023-04-02T03:23:28.371Z,2.63
2023-04-02T03:25:58.636Z,1.90
2023-04-02T03:28:28.397Z,2.33
2023-04-02T03:30:57.867Z,2.03
2023-04-02T03:33:27.245Z,2.57
2023-04-02T03:35:58.862Z,2.57
2023-04-02T03:38:28.547Z,2.17
2023-04-02T03:41:02.258Z,2.13
2023-04-02T03:43:33.066Z,2.53
2023-04-02T03:46:04.242Z,1.63
2023-04-02T03:48:35.058Z,2.20
2023-04-02T03:51:07.574Z,1.90
2023-04-02T03:53:35.204Z,1.13
2023-04-02T03:56:03.818Z,1.13
2023-04-02T03:58:35.837Z,1.43
2023-04-02T04:01:06.648Z,1.40
2023-04-02T04:03:39.827Z,1.20
2023-04-02T04:06:11.006Z,0.90
2023-04-02T04:08:42.654Z,1.00
2023-04-02T04:11:14.102Z,1.53
2023-04-02T04:13:44.690Z,1.30
2023-04-02T04:16:14.759Z,1.20
2023-04-02T04:18:44.615Z,1.13
2023-04-02T04:21:29.837Z,1.30
2023-04-02T04:24:04.225Z,1.30
2023-04-02T04:26:36.678Z,1.20
2023-04-02T04:29:09.688Z,0.80
2023-04-02T04:31:41.221Z,0.80
2023-04-02T04:34:16.053Z,0.70
2023-04-02T04:36:47.943Z,1.00
2023-04-02T04:39:17.670Z,1.20
2023-04-02T04:41:49.007Z,1.33
2023-04-02T04:44:22.777Z,0.63
2023-04-02T04:46:54.352Z,1.30
2023-04-02T04:49:26.220Z,0.93
2023-04-02T04:51:57.109Z,1.43
2023-04-02T04:54:26.645Z,1.03
2023-04-02T04:56:57.369Z,1.40
2023-04-02T04:59:28.003Z,1.60
2023-04-02T05:02:01.554Z,1.60
2023-04-02T05:04:32.411Z,1.00
2023-04-02T05:07:04.535Z,0.80
2023-04-02T05:09:34.643Z,1.30
2023-04-02T05:12:06.150Z,1.00
2023-04-02T05:14:36.650Z,1.33
2023-04-02T05:17:06.856Z,1.43
2023-04-02T05:19:37.872Z,1.73
2023-04-02T05:22:15.869Z,1.50
2023-04-02T05:24:57.117Z,1.67
2023-04-02T05:27:28.088Z,1.93
2023-04-02T05:29:58.515Z,1.73
2023-04-02T05:32:27.731Z,1.40
2023-04-02T05:34:55.969Z,1.30
2023-04-02T05:37:27.256Z,1.67
2023-04-02T05:39:55.617Z,1.60
2023-04-02T05:42:24.604Z,1.47
2023-04-02T05:45:02.673Z,1.60
2023-04-02T05:47:33.254Z,1.50
2023-04-02T05:50:12.350Z,1.53
2023-04-02T05:52:48.977Z,1.10
2023-04-02T05:55:38.690Z,1.27
2023-04-02T05:58:33.727Z,1.60
2023-04-02T06:01:02.279Z,1.40
2023-04-02T06:03:35.401Z,1.40
2023-04-02T06:06:07.146Z,1.47
2023-04-02T06:08:39.145Z,1.90
2023-04-02T06:11:08.683Z,2.20
2023-04-02T06:13:37.622Z,1.67
2023-04-02T06:16:07.062Z,2.40
2023-04-02T06:18:35.977Z,2.20
2023-04-02T06:21:06.113Z,2.50
2023-04-02T06:23:36.502Z,1.67
2023-04-02T06:26:08.770Z,2.17
2023-04-02T06:28:41.467Z,3.00
2023-04-02T06:31:11.219Z,2.30
2023-04-02T06:33:39.426Z,2.40
2023-04-02T06:36:08.706Z,1.73
2023-04-02T06:38:38.695Z,1.87
2023-04-02T06:41:16.050Z,1.93
2023-04-02T06:44:08.197Z,1.40
2023-04-02T06:46:52.693Z,2.20
2023-04-02T06:49:23.779Z,1.60
2023-04-02T06:51:57.290Z,1.97
2023-04-02T06:54:25.953Z,1.93
2023-04-02T06:56:59.561Z,2.30
2023-04-02T06:59:39.536Z,2.43
2023-04-02T07:02:19.958Z,1.90
2023-04-02T07:04:48.784Z,2.00
2023-04-02T07:07:18.465Z,1.50
2023-04-02T07:09:48.394Z,1.70
2023-04-02T07:12:20.584Z,1.80
2023-04-02T07:14:47.993Z,1.40
2023-04-02T07:17:16.693Z,1.73
2023-04-02T07:19:45.609Z,1.83
2023-04-02T07:22:13.335Z,1.53
2023-04-02T07:24:44.106Z,1.50
2023-04-02T07:27:11.640Z,2.20
2023-04-02T07:29:42.870Z,1.90
2023-04-02T07:32:10.563Z,1.77
2023-04-02T07:34:37.983Z,1.47
2023-04-02T07:37:06.855Z,2.23
2023-04-02T07:39:36.201Z,1.97
2023-04-02T07:42:04.664Z,1.73
2023-04-02T07:44:32.031Z,1.53
2023-04-02T07:47:00.810Z,2.60
2023-04-02T07:49:28.323Z,2.60
2023-04-02T07:51:55.647Z,2.10
2023-04-02T07:54:23.308Z,2.37
2023-04-02T07:56:50.744Z,2.07
2023-04-02T07:59:18.165Z,2.50
2023-04-02T08:01:45.846Z,2.13
2023-04-02T08:04:19.495Z,2.60
2023-04-02T08:06:47.419Z,2.00
2023-04-02T08:09:14.851Z,1.97
2023-04-02T08:11:42.608Z,2.13
2023-04-02T08:14:10.459Z,1.80
2023-04-02T08:16:44.560Z,1.97
2023-04-02T08:19:11.964Z,1.87
2023-04-02T08:21:40.685Z,1.83
2023-04-02T08:24:08.414Z,1.10
2023-04-02T08:26:36.154Z,1.10
2023-04-02T08:29:04.178Z,1.87
2023-04-02T08:31:32.172Z,1.63
2023-04-02T08:33:59.586Z,1.47
2023-04-02T08:36:29.715Z,1.60
2023-04-02T08:38:58.519Z,1.80
2023-04-02T08:41:27.984Z,1.70
2023-04-02T08:44:10.895Z,1.20
2023-04-02T08:46:41.802Z,1.80
2023-04-02T08:49:13.100Z,1.60
2023-04-02T08:51:40.930Z,1.80
2023-04-02T08:54:17.385Z,1.90
2023-04-02T08:56:46.952Z,2.40
2023-04-02T08:59:20.516Z,2.20
2023-04-02T09:01:51.700Z,2.30
2023-04-02T09:04:20.821Z,2.30
2023-04-02T09:06:49.269Z,2.57
2023-04-02T09:09:18.329Z,1.67
2023-04-02T09:11:49.331Z,2.33
2023-04-02T09:14:18.333Z,2.47
2023-04-02T09:16:47.163Z,2.17
2023-04-02T09:19:19.366Z,2.43
2023-04-02T09:21:49.413Z,2.50
2023-04-02T09:24:18.077Z,2.30
2023-04-02T09:26:46.985Z,1.90
2023-04-02T09:29:25.676Z,2.10
2023-04-02T09:31:58.283Z,2.23
2023-04-02T09:34:30.023Z,1.90
2023-04-02T09:36:57.776Z,2.00
2023-04-02T09:39:26.959Z,1.70
2023-04-02T09:42:05.008Z,1.60
2023-04-02T09:44:33.163Z,1.50
2023-04-02T09:47:03.842Z,1.60
2023-04-02T09:49:32.495Z,1.20
2023-04-02T09:52:18.793Z,1.97
2023-04-02T09:54:47.661Z,1.80
2023-04-02T09:57:24.179Z,1.53
2023-04-02T10:00:25.252Z,1.70
2023-04-02T10:03:03.358Z,2.07
2023-04-02T10:05:40.565Z,1.70
2023-04-02T10:08:10.384Z,2.00
2023-04-02T10:10:41.790Z,2.13
2023-04-02T10:13:12.882Z,2.03
2023-04-02T10:15:43.199Z,2.10
2023-04-02T10:18:14.316Z,1.70
2023-04-02T10:20:50.967Z,2.17
2023-04-02T10:23:19.285Z,1.70
2023-04-02T10:25:50.627Z,1.50
2023-04-02T10:28:26.738Z,1.97
2023-04-02T10:30:58.663Z,1.60
2023-04-02T10:33:28.608Z,1.77
2023-04-02T10:35:58.228Z,1.37
2023-04-02T10:38:30.888Z,2.50
2023-04-02T10:41:01.395Z,1.97
2023-04-02T10:43:44.467Z,1.90
2023-04-02T10:46:15.608Z,1.30
2023-04-02T10:48:47.787Z,1.27
2023-04-02T10:51:20.769Z,1.53
2023-04-02T10:53:52.650Z,1.50
2023-04-02T10:56:22.703Z,1.67
2023-04-02T10:58:54.992Z,1.80
2023-04-02T11:01:26.926Z,1.87
2023-04-02T11:03:58.604Z,1.17
2023-04-02T11:06:28.590Z,1.73
2023-04-02T11:08:58.444Z,1.57
2023-04-02T11:11:28.549Z,0.90
2023-04-02T11:13:58.350Z,1.60
2023-04-02T11:16:27.465Z,1.30
2023-04-02T11:19:21.234Z,1.17
2023-04-02T11:21:58.788Z,1.07
2023-04-02T11:24:37.425Z,1.30
2023-04-02T11:27:07.378Z,0.93
2023-04-02T11:29:35.842Z,1.70
2023-04-02T11:32:30.656Z,1.50
2023-04-02T11:35:05.873Z,1.60
2023-04-02T11:37:36.226Z,1.67
2023-04-02T11:40:07.370Z,1.40
2023-04-02T11:42:37.169Z,1.80
2023-04-02T11:45:23.179Z,2.27
2023-04-02T11:48:08.923Z,2.13
2023-04-02T11:50:37.176Z,2.37
2023-04-02T11:53:05.497Z,2.03
2023-04-02T11:55:33.448Z,2.37
2023-04-02T11:58:22.716Z,2.90
2023-04-02T12:01:00.579Z,2.60
2023-04-02T12:03:33.057Z,2.60
2023-04-02T12:06:03.743Z,2.23
2023-04-02T12:08:44.472Z,2.87
2023-04-02T12:11:18.684Z,2.90
2023-04-02T12:13:52.029Z,2.83
2023-04-02T12:16:20.502Z,2.60
2023-04-02T12:18:51.132Z,3.10
2023-04-02T12:21:19.265Z,2.87
2023-04-02T12:23:47.313Z,2.70
2023-04-02T12:26:30.020Z,2.77
2023-04-02T12:29:12.277Z,2.77
2023-04-02T12:31:43.983Z,2.40
2023-04-02T12:34:14.907Z,2.13
2023-04-02T12:36:52.633Z,2.03
2023-04-02T12:39:19.985Z,2.20
2023-04-02T12:41:47.617Z,2.43
2023-04-02T12:44:17.204Z,2.30
2023-04-02T12:46:46.946Z,2.10
2023-04-02T12:49:21.828Z,2.03
2023-04-02T12:51:49.800Z,2.47
2023-04-02T12:54:18.368Z,1.80
2023-04-02T12:56:46.250Z,1.97
2023-04-02T12:59:25.296Z,2.53
2023-04-02T13:01:58.103Z,2.10
2023-04-02T13:04:25.701Z,2.10
2023-04-02T13:06:54.903Z,2.37
2023-04-02T13:09:34.394Z,2.33
2023-04-02T13:12:01.879Z,2.00
2023-04-02T13:14:29.534Z,2.40
2023-04-02T13:16:58.267Z,2.23
2023-04-02T13:19:29.551Z,2.20
2023-04-02T13:21:57.806Z,2.27
2023-04-02T13:24:26.228Z,2.63
2023-04-02T13:26:56.333Z,2.67
2023-04-02T13:29:25.496Z,2.30
2023-04-02T13:31:53.550Z,1.73
2023-04-02T13:34:22.641Z,2.20
2023-04-02T13:36:51.556Z,2.03
2023-04-02T13:39:19.474Z,1.50
2023-04-02T13:41:48.059Z,1.27
2023-04-02T13:44:20.532Z,1.20
2023-04-02T13:46:48.097Z,0.97
2023-04-02T13:49:15.719Z,1.40
2023-04-02T13:51:45.991Z,0.90
2023-04-02T13:54:16.844Z,1.10
2023-04-02T13:56:44.267Z,0.73
2023-04-02T13:59:12.069Z,0.83
2023-04-02T14:01:39.697Z,1.10
2023-04-02T14:04:07.417Z,0.97
2023-04-02T14:07:07.936Z,1.10
2023-04-02T14:09:41.282Z,0.80
2023-04-02T14:12:11.068Z,0.83
2023-04-02T14:14:51.340Z,0.73
2023-04-02T14:17:24.114Z,1.07
2023-04-02T14:20:00.761Z,1.60
2023-04-02T14:22:32.594Z,1.10
2023-04-02T14:25:05.381Z,0.80
2023-04-02T14:27:40.200Z,0.80
2023-04-02T14:30:12.375Z,0.97
2023-04-02T14:32:44.516Z,1.13
2023-04-02T14:35:16.416Z,0.90
2023-04-02T14:37:51.400Z,1.00
2023-04-02T14:40:23.989Z,0.90
2023-04-02T14:42:54.214Z,0.80
2023-04-02T14:45:27.266Z,0.70
2023-04-02T14:47:58.349Z,1.20
2023-04-02T14:50:29.266Z,1.00
2023-04-02T14:52:58.113Z,1.27
2023-04-02T14:55:31.585Z,1.00
2023-04-02T14:58:01.372Z,0.90
2023-04-02T15:00:33.781Z,1.17
2023-04-02T15:03:06.005Z,1.00
2023-04-02T15:05:36.404Z,1.10
2023-04-02T15:08:05.455Z,0.90
2023-04-02T15:10:36.360Z,1.13
2023-04-02T15:13:05.359Z,1.30
2023-04-02T15:15:40.066Z,0.70
2023-04-02T15:18:10.615Z,1.30
2023-04-02T15:20:40.505Z,1.30
2023-04-02T15:23:10.999Z,1.40
2023-04-02T15:25:44.719Z,1.60
2023-04-02T15:28:19.246Z,1.27
2023-04-02T15:30:47.913Z,1.30
2023-04-02T15:33:31.093Z,1.60
2023-04-02T15:36:01.606Z,1.90
2023-04-02T15:38:32.302Z,1.93
2023-04-02T15:41:04.635Z,1.90
2023-04-02T15:43:35.406Z,1.53
2023-04-02T15:46:18.548Z,1.40
2023-04-02T15:48:53.858Z,1.40
2023-04-02T15:51:26.345Z,1.60
2023-04-02T15:53:58.607Z,1.33
2023-04-02T15:56:35.903Z,1.43
2023-04-02T15:59:14.007Z,1.60
2023-04-02T16:01:45.090Z,0.80
2023-04-02T16:04:42.492Z,1.27
2023-04-02T16:07:19.344Z,1.20
2023-04-02T16:09:51.510Z,1.70
2023-04-02T16:12:22.698Z,1.10
2023-04-02T16:14:50.443Z,1.00
2023-04-02T16:17:24.949Z,1.43
2023-04-02T16:19:55.375Z,1.40
2023-04-02T16:22:25.474Z,1.00
2023-04-02T16:24:58.518Z,0.70
2023-04-02T16:27:30.380Z,1.30
2023-04-02T16:30:15.744Z,1.00
2023-04-02T16:32:51.327Z,1.60
2023-04-02T16:35:41.954Z,1.23
2023-04-02T16:38:15.909Z,1.00
2023-04-02T16:40:57.144Z,1.20
2023-04-02T16:43:33.191Z,1.10
2023-04-02T16:46:04.804Z,1.00
2023-04-02T16:48:37.472Z,1.17
2023-04-02T16:51:10.841Z,1.20
2023-04-02T16:53:58.331Z,1.10
2023-04-02T16:56:34.916Z,1.30
2023-04-02T16:59:08.162Z,1.10
2023-04-02T17:01:42.359Z,1.37
2023-04-02T17:04:23.183Z,1.33
2023-04-02T17:06:56.095Z,1.03
2023-04-02T17:09:24.599Z,1.23
2023-04-02T17:11:53.636Z,1.23
2023-04-02T17:14:29.577Z,1.17
2023-04-02T17:16:58.347Z,1.10
2023-04-02T17:19:27.249Z,0.90
2023-04-02T17:21:58.249Z,1.70
2023-04-02T17:24:27.178Z,1.30
2023-04-02T17:26:57.566Z,1.17
2023-04-02T17:29:27.981Z,1.23
2023-04-02T17:32:00.850Z,1.10
2023-04-02T17:34:29.351Z,0.90
2023-04-02T17:36:59.738Z,1.07
2023-04-02T17:39:35.675Z,1.07
2023-04-02T17:42:08.415Z,1.30
2023-04-02T17:44:43.762Z,1.40
2023-04-02T17:47:14.578Z,1.20
2023-04-02T17:49:47.577Z,1.43
2023-04-02T17:52:16.561Z,1.03
2023-04-02T17:54:48.154Z,1.20
2023-04-02T17:57:23.634Z,1.07
2023-04-02T18:00:02.772Z,1.10
2023-04-02T18:02:55.088Z,1.27
2023-04-02T18:05:27.735Z,1.30
2023-04-02T18:07:59.742Z,1.20
2023-04-02T18:10:29.037Z,0.97
2023-04-02T18:12:58.341Z,1.17
2023-04-02T18:15:55.426Z,0.90
2023-04-02T18:18:28.313Z,1.30
2023-04-02T18:21:05.532Z,1.20
2023-04-02T18:23:37.446Z,1.17
2023-04-02T18:26:07.183Z,1.10
2023-04-02T18:28:39.709Z,1.30
2023-04-02T18:31:13.364Z,1.00
2023-04-02T18:33:56.943Z,1.47
2023-04-02T18:36:27.063Z,1.20
2023-04-02T18:38:55.815Z,1.20
2023-04-02T18:41:31.322Z,1.00
2023-04-02T18:44:07.542Z,1.20
2023-04-02T18:46:40.677Z,1.10
2023-04-02T18:49:14.272Z,1.20
2023-04-02T18:51:41.628Z,0.90
2023-04-02T18:54:14.340Z,1.20
2023-04-02T18:56:42.599Z,1.10
2023-04-02T18:59:19.247Z,1.27
2023-04-02T19:01:50.331Z,1.20
2023-04-02T19:04:19.934Z,1.20
2023-04-02T19:06:49.636Z,1.10
2023-04-02T19:09:20.652Z,1.50
2023-04-02T19:11:51.219Z,1.30
2023-04-02T19:14:19.435Z,1.40
2023-04-02T19:16:58.658Z,1.30
2023-04-02T19:19:26.836Z,1.23
2023-04-02T19:22:00.110Z,1.37
2023-04-02T19:24:36.198Z,1.17
2023-04-02T19:27:08.014Z,1.27
2023-04-02T19:29:42.221Z,1.13
2023-04-02T19:32:14.525Z,1.27
2023-04-02T19:34:47.424Z,1.10
2023-04-02T19:37:16.688Z,1.40
2023-04-02T19:39:48.462Z,1.40
2023-04-02T19:42:24.009Z,1.47
2023-04-02T19:44:52.242Z,1.23
2023-04-02T19:47:21.438Z,1.57
2023-04-02T19:49:49.262Z,1.50
2023-04-02T19:52:16.866Z,1.27
2023-04-02T19:54:44.210Z,1.60
2023-04-02T19:57:13.299Z,1.40
2023-04-02T19:59:40.736Z,1.37
2023-04-02T20:02:10.288Z,1.27
2023-04-02T20:04:39.253Z,1.80
2023-04-02T20:07:07.145Z,1.30
2023-04-02T20:09:34.863Z,1.50
2023-04-02T20:12:04.875Z,1.57
2023-04-02T20:14:32.290Z,1.33
2023-04-02T20:17:00.368Z,1.40
2023-04-02T20:19:27.869Z,1.50
2023-04-02T20:21:57.232Z,1.30
2023-04-02T20:24:25.176Z,1.77
2023-04-02T20:26:55.441Z,1.50
2023-04-02T20:29:28.259Z,1.30
2023-04-02T20:31:56.800Z,1.00
2023-04-02T20:34:24.872Z,1.30
2023-04-02T20:36:53.644Z,1.50
2023-04-02T20:39:22.985Z,1.33
2023-04-02T20:41:50.529Z,1.17
2023-04-02T20:44:18.138Z,1.00
2023-04-02T20:46:45.602Z,1.37
2023-04-02T20:49:13.907Z,1.27
2023-04-02T20:51:42.027Z,1.50
2023-04-02T20:54:09.678Z,1.00
2023-04-02T20:56:38.934Z,1.10
2023-04-02T20:59:06.517Z,0.90
2023-04-02T21:01:34.247Z,1.07
2023-04-02T21:04:02.795Z,1.30
2023-04-02T21:06:32.238Z,1.10
2023-04-02T21:08:59.608Z,0.93
2023-04-02T21:11:27.133Z,0.90
2023-04-02T21:13:55.887Z,1.10
2023-04-02T21:16:24.416Z,1.63
2023-04-02T21:18:52.806Z,1.10
2023-04-02T21:21:21.222Z,1.10
2023-04-02T21:23:50.075Z,1.20
2023-04-02T21:26:18.969Z,1.03
2023-04-02T21:28:46.601Z,0.83
2023-04-02T21:31:16.213Z,1.17
2023-04-02T21:33:46.314Z,0.90
2023-04-02T21:36:15.675Z,0.83
2023-04-02T21:38:43.752Z,0.50
2023-04-02T21:41:16.120Z,0.80
2023-04-02T21:43:48.299Z,1.00
2023-04-02T21:46:17.729Z,0.87
2023-04-02T21:48:45.816Z,0.90
2023-04-02T21:51:16.205Z,0.83
2023-04-02T21:53:44.728Z,1.10
2023-04-02T21:56:13.660Z,0.90
2023-04-02T21:58:43.414Z,0.70
2023-04-02T22:01:16.815Z,1.03
2023-04-02T22:03:49.414Z,0.67
2023-04-02T22:06:20.389Z,0.83
2023-04-02T22:08:49.232Z,0.87
2023-04-02T22:11:17.582Z,1.03
2023-04-02T22:13:46.240Z,0.50
2023-04-02T22:16:14.652Z,0.80
2023-04-02T22:18:43.851Z,1.17
2023-04-02T22:21:14.672Z,0.70
2023-04-02T22:23:42.092Z,0.70
2023-04-02T22:26:10.164Z,0.80
2023-04-02T22:28:38.090Z,1.10
2023-04-02T22:31:08.765Z,0.80
2023-04-02T22:33:36.761Z,0.47
2023-04-02T22:36:05.018Z,0.90
2023-04-02T22:38:34.308Z,0.67
2023-04-02T22:41:06.497Z,0.70
2023-04-02T22:43:34.664Z,0.80
2023-04-02T22:46:03.771Z,0.70
2023-04-02T22:48:31.541Z,0.77
2023-04-02T22:50:59.936Z,0.93
2023-04-02T22:53:28.566Z,0.70
2023-04-02T22:56:03.724Z,0.73
2023-04-02T22:58:31.199Z,0.53
2023-04-02T23:01:03.765Z,0.57
2023-04-02T23:03:32.594Z,0.67
2023-04-02T23:06:05.111Z,0.40
2023-04-02T23:08:33.302Z,1.00
2023-04-02T23:11:03.949Z,1.27
2023-04-02T23:13:33.322Z,0.70
2023-04-02T23:16:01.721Z,0.90
2023-04-02T23:18:30.371Z,0.90
2023-04-02T23:20:58.995Z,0.70
2023-04-02T23:23:26.696Z,0.57
2023-04-02T23:26:04.998Z,0.77
2023-04-02T23:28:32.639Z,0.70
2023-04-02T23:31:00.987Z,0.83
2023-04-02T23:33:29.061Z,0.67
2023-04-02T23:35:57.040Z,0.50
2023-04-02T23:38:24.652Z,0.70
2023-04-02T23:40:52.234Z,0.90
2023-04-02T23:43:21.604Z,0.73
2023-04-02T23:45:50.317Z,0.57
2023-04-02T23:48:18.179Z,0.70
2023-04-02T23:50:46.238Z,0.47
2023-04-02T23:53:15.138Z,0.70
2023-04-02T23:55:44.647Z,0.80
2023-04-02T23:58:12.733Z,0.60
